createdAt,value
2019-03-28T00:01:57.933Z,96.96
2019-03-28T00:04:29.508Z,96.94
2019-03-28T00:07:00.661Z,96.80
2019-03-28T00:09:32.019Z,96.94
2019-03-28T00:12:03.256Z,97.14
2019-03-28T00:14:34.608Z,97.21
2019-03-28T00:17:06.068Z,97.23
2019-03-28T00:19:37.410Z,97.30
2019-03-28T00:22:08.655Z,97.35
2019-03-28T00:24:50.771Z,97.34
2019-03-28T00:27:22.415Z,97.34
2019-03-28T00:29:54.341Z,97.39
2019-03-28T00:32:26.328Z,97.40
2019-03-28T00:34:57.797Z,97.42
2019-03-28T00:37:30.275Z,97.32
2019-03-28T00:40:02.012Z,97.31
2019-03-28T00:42:33.702Z,97.33
2019-03-28T00:45:07.152Z,97.35
2019-03-28T00:47:38.493Z,97.34
2019-03-28T00:50:10.306Z,97.32
2019-03-28T00:52:41.854Z,97.29
2019-03-28T00:55:13.823Z,97.22
2019-03-28T00:57:45.381Z,97.24
2019-03-28T01:00:17.040Z,97.33
2019-03-28T01:02:48.901Z,97.38
2019-03-28T01:05:20.464Z,97.35
2019-03-28T01:07:52.004Z,97.38
2019-03-28T01:10:23.782Z,97.35
2019-03-28T01:12:55.355Z,97.39
2019-03-28T01:15:27.082Z,97.36
2019-03-28T01:17:58.641Z,97.22
2019-03-28T01:20:30.502Z,97.13
2019-03-28T01:23:03.801Z,96.93
2019-03-28T01:25:35.361Z,96.83
2019-03-28T01:28:07.116Z,96.67
2019-03-28T01:30:38.877Z,96.51
2019-03-28T01:33:10.636Z,96.35
2019-03-28T01:35:42.188Z,96.30
2019-03-28T01:38:13.852Z,96.28
2019-03-28T01:40:45.680Z,96.39
2019-03-28T01:43:17.163Z,96.50
2019-03-28T01:45:48.920Z,96.59
2019-03-28T01:48:20.379Z,96.63
2019-03-28T01:50:51.932Z,96.64
2019-03-28T01:53:23.695Z,96.58
2019-03-28T01:55:55.168Z,96.50
2019-03-28T01:58:26.902Z,96.32
2019-03-28T02:00:58.464Z,96.14
2019-03-28T02:03:30.218Z,95.90
2019-03-28T02:06:01.674Z,95.79
2019-03-28T02:08:33.434Z,95.66
2019-03-28T02:11:05.399Z,95.60
2019-03-28T02:13:36.959Z,95.51
2019-03-28T02:16:08.608Z,95.48
2019-03-28T02:18:40.283Z,95.53
2019-03-28T02:21:11.938Z,95.55
2019-03-28T02:23:43.698Z,95.53
2019-03-28T02:26:15.449Z,95.58
2019-03-28T02:28:46.905Z,95.60
2019-03-28T02:31:18.557Z,95.62
2019-03-28T02:33:50.419Z,95.65
2019-03-28T02:36:21.990Z,95.68
2019-03-28T02:38:54.765Z,95.66
2019-03-28T02:41:26.423Z,95.72
2019-03-28T02:43:58.281Z,95.70
2019-03-28T02:46:29.837Z,95.74
2019-03-28T02:49:01.598Z,95.71
2019-03-28T02:51:33.256Z,95.63
2019-03-28T02:54:05.580Z,95.67
2019-03-28T02:56:37.325Z,95.73
2019-03-28T02:59:09.051Z,95.77
2019-03-28T03:01:40.830Z,95.77
2019-03-28T03:04:12.683Z,95.78
2019-03-28T03:06:44.229Z,95.81
2019-03-28T03:09:15.889Z,95.87
2019-03-28T03:11:47.443Z,95.89
2019-03-28T03:14:19.306Z,95.81
2019-03-28T03:16:50.764Z,95.81
2019-03-28T03:19:22.519Z,95.74
2019-03-28T03:21:54.176Z,95.66
2019-03-28T03:24:25.827Z,95.64
2019-03-28T03:26:57.704Z,95.62
2019-03-28T03:29:30.371Z,95.60
2019-03-28T03:32:02.152Z,95.53
2019-03-28T03:34:33.789Z,95.43
2019-03-28T03:37:05.656Z,95.28
2019-03-28T03:39:39.717Z,95.27
2019-03-28T03:42:11.746Z,95.16
2019-03-28T03:44:43.392Z,95.09
2019-03-28T03:47:15.155Z,94.76
2019-03-28T03:49:46.814Z,94.54
2019-03-28T03:52:18.477Z,94.31
2019-03-28T03:54:50.229Z,93.96
2019-03-28T03:57:21.992Z,93.70
2019-03-28T03:59:53.558Z,93.51
2019-03-28T04:02:25.299Z,92.94
2019-03-28T04:04:57.371Z,92.71
2019-03-28T04:07:28.950Z,92.75
2019-03-28T04:10:00.785Z,92.65
2019-03-28T04:12:32.197Z,92.76
2019-03-28T04:15:04.372Z,92.84
2019-03-28T04:17:36.184Z,93.03
2019-03-28T04:20:07.829Z,93.09
2019-03-28T04:22:39.494Z,93.18
2019-03-28T04:25:11.395Z,92.66
2019-03-28T04:27:43.055Z,92.87
2019-03-28T04:30:15.587Z,92.44
2019-03-28T04:32:48.466Z,92.05
2019-03-28T04:35:20.538Z,91.95
2019-03-28T04:37:52.356Z,92.09
2019-03-28T04:40:23.955Z,91.95
2019-03-28T04:42:55.718Z,91.58
2019-03-28T04:45:27.575Z,91.11
2019-03-28T04:47:59.135Z,91.28
2019-03-28T04:50:30.588Z,90.99
2019-03-28T04:53:02.255Z,91.14
2019-03-28T04:55:33.901Z,91.23
2019-03-28T04:58:06.582Z,90.95
2019-03-28T05:00:38.238Z,90.94
2019-03-28T05:03:09.899Z,91.08
2019-03-28T05:05:41.767Z,91.40
2019-03-28T05:08:13.130Z,91.22
2019-03-28T05:10:44.768Z,90.81
2019-03-28T05:13:16.333Z,90.12
2019-03-28T05:15:47.981Z,90.16
2019-03-28T05:18:19.230Z,90.33
2019-03-28T05:20:50.886Z,90.56
2019-03-28T05:23:22.465Z,90.49
2019-03-28T05:25:54.101Z,90.74
2019-03-28T05:28:25.861Z,90.82
2019-03-28T05:30:57.419Z,90.83
2019-03-28T05:33:29.081Z,90.75
2019-03-28T05:36:00.528Z,90.95
2019-03-28T05:38:31.998Z,90.93
2019-03-28T05:41:03.634Z,90.90
2019-03-28T05:43:35.296Z,90.88
2019-03-28T05:46:06.654Z,91.42
2019-03-28T05:48:38.204Z,91.14
2019-03-28T05:51:09.557Z,91.29
2019-03-28T05:53:43.894Z,91.32
2019-03-28T05:56:14.204Z,91.31
2019-03-28T05:58:45.967Z,91.65
2019-03-28T06:01:17.411Z,91.98
2019-03-28T06:03:48.864Z,92.34
2019-03-28T06:06:20.312Z,92.75
2019-03-28T06:08:51.765Z,92.91
2019-03-28T06:11:23.431Z,93.02
2019-03-28T06:13:55.095Z,93.04
2019-03-28T06:16:26.455Z,93.12
2019-03-28T06:18:57.993Z,93.08
2019-03-28T06:21:29.370Z,92.80
2019-03-28T06:24:00.903Z,92.72
2019-03-28T06:26:32.454Z,92.47
2019-03-28T06:29:04.022Z,92.36
2019-03-28T06:31:36.289Z,92.03
2019-03-28T06:34:07.696Z,91.88
2019-03-28T06:36:40.394Z,91.56
2019-03-28T06:39:11.973Z,90.66
2019-03-28T06:41:44.480Z,90.08
2019-03-28T06:44:15.907Z,90.14
2019-03-28T06:46:47.576Z,89.90
2019-03-28T06:49:19.222Z,89.68
2019-03-28T06:51:50.780Z,89.52
2019-03-28T06:54:24.291Z,89.58
2019-03-28T06:56:55.829Z,89.71
2019-03-28T06:59:37.112Z,89.33
2019-03-28T07:02:00.581Z,88.75
2019-03-28T07:04:32.118Z,88.38
2019-03-28T07:07:03.798Z,88.55
2019-03-28T07:09:35.457Z,88.72
2019-03-28T07:12:06.813Z,89.25
2019-03-28T07:14:38.461Z,89.38
2019-03-28T07:17:10.012Z,89.49
2019-03-28T07:19:41.575Z,89.74
2019-03-28T07:22:13.038Z,89.96
2019-03-28T07:24:44.676Z,90.79
2019-03-28T07:27:17.277Z,90.96
2019-03-28T07:29:51.093Z,91.44
2019-03-28T07:32:21.629Z,92.00
2019-03-28T07:34:53.258Z,91.70
2019-03-28T07:37:27.858Z,91.68
2019-03-28T07:39:57.599Z,91.68
2019-03-28T07:42:29.148Z,91.78
2019-03-28T07:45:00.718Z,92.01
2019-03-28T07:47:32.361Z,92.13
2019-03-28T07:50:05.976Z,91.95
2019-03-28T07:52:37.518Z,91.59
2019-03-28T07:55:08.974Z,91.59
2019-03-28T07:57:41.417Z,91.70
2019-03-28T08:00:12.939Z,90.94
2019-03-28T08:02:44.564Z,91.33
2019-03-28T08:05:16.217Z,91.12
2019-03-28T08:07:47.571Z,89.91
2019-03-28T08:10:19.125Z,89.63
2019-03-28T08:12:50.699Z,89.87
2019-03-28T08:15:22.032Z,89.47
2019-03-28T08:17:54.410Z,89.74
2019-03-28T08:20:26.784Z,90.44
2019-03-28T08:22:58.334Z,90.27
2019-03-28T08:25:29.912Z,89.75
2019-03-28T08:28:01.547Z,89.75
2019-03-28T08:30:35.348Z,88.54
2019-03-28T08:33:06.963Z,87.85
2019-03-28T08:35:38.492Z,86.02
2019-03-28T08:38:10.490Z,86.25
2019-03-28T08:40:43.139Z,85.71
2019-03-28T08:43:15.059Z,86.25
2019-03-28T08:45:46.472Z,85.34
2019-03-28T08:48:18.103Z,84.49
2019-03-28T08:50:49.748Z,84.32
2019-03-28T08:53:21.296Z,83.87
2019-03-28T08:55:52.959Z,84.04
2019-03-28T08:58:24.411Z,84.85
2019-03-28T09:00:55.967Z,84.36
2019-03-28T09:03:27.524Z,84.04
2019-03-28T09:06:00.001Z,84.70
2019-03-28T09:08:31.662Z,84.06
2019-03-28T09:11:03.215Z,84.30
2019-03-28T09:13:34.870Z,84.55
2019-03-28T09:16:06.422Z,84.89
2019-03-28T09:18:37.868Z,84.51
2019-03-28T09:21:09.534Z,84.04
2019-03-28T09:23:41.504Z,83.50
2019-03-28T09:26:12.953Z,84.25
2019-03-28T09:28:44.610Z,83.39
2019-03-28T09:31:20.213Z,84.13
2019-03-28T09:33:49.257Z,85.06
2019-03-28T09:36:20.813Z,84.82
2019-03-28T09:38:52.238Z,84.45
2019-03-28T09:41:24.008Z,84.15
2019-03-28T09:43:56.123Z,83.87
2019-03-28T09:46:27.653Z,83.72
2019-03-28T09:48:59.000Z,84.20
2019-03-28T09:51:30.556Z,82.94
2019-03-28T09:54:02.092Z,82.92
2019-03-28T09:56:33.551Z,83.41
2019-03-28T09:59:05.118Z,83.45
2019-03-28T10:01:36.676Z,83.52
2019-03-28T10:04:08.046Z,83.92
2019-03-28T10:06:39.682Z,83.63
2019-03-28T10:09:11.237Z,82.90
2019-03-28T10:11:42.595Z,82.30
2019-03-28T10:14:13.939Z,82.29
2019-03-28T10:16:45.597Z,83.09
2019-03-28T10:19:17.155Z,82.98
2019-03-28T10:21:48.693Z,82.55
2019-03-28T10:24:20.378Z,82.00
2019-03-28T10:26:52.131Z,82.45
2019-03-28T10:29:23.483Z,81.34
2019-03-28T10:31:55.033Z,81.36
2019-03-28T10:34:26.459Z,80.57
2019-03-28T10:36:58.144Z,80.65
2019-03-28T10:39:30.957Z,81.29
2019-03-28T10:42:02.587Z,81.59
2019-03-28T10:44:34.260Z,81.46
2019-03-28T10:47:05.901Z,81.19
2019-03-28T10:49:37.460Z,81.39
2019-03-28T10:52:11.951Z,81.50
2019-03-28T10:54:42.614Z,81.46
2019-03-28T10:57:28.882Z,81.07
2019-03-28T10:59:47.267Z,80.99
2019-03-28T11:02:19.124Z,80.35
2019-03-28T11:04:50.778Z,79.89
2019-03-28T11:07:22.238Z,79.44
2019-03-28T11:09:54.112Z,78.66
2019-03-28T11:12:25.756Z,78.07
2019-03-28T11:14:57.103Z,77.62
2019-03-28T11:17:28.555Z,77.39
2019-03-28T11:20:00.504Z,76.95
2019-03-28T11:22:32.077Z,77.35
2019-03-28T11:25:04.045Z,76.41
2019-03-28T11:27:35.497Z,76.58
2019-03-28T11:30:07.771Z,75.92
2019-03-28T11:32:39.424Z,76.58
2019-03-28T11:35:11.085Z,76.51
2019-03-28T11:37:42.535Z,75.01
2019-03-28T11:40:14.193Z,76.39
2019-03-28T11:42:45.579Z,76.11
2019-03-28T11:45:17.415Z,75.65
2019-03-28T11:47:48.765Z,75.62
2019-03-28T11:50:20.320Z,76.44
2019-03-28T11:52:51.972Z,75.22
2019-03-28T11:55:23.529Z,75.79
2019-03-28T11:57:56.608Z,72.43
2019-03-28T12:00:27.900Z,72.29
2019-03-28T12:02:59.528Z,70.47
2019-03-28T12:05:30.976Z,71.25
2019-03-28T12:08:02.534Z,70.08
2019-03-28T12:10:34.196Z,70.80
2019-03-28T12:13:05.750Z,72.37
2019-03-28T12:15:37.123Z,69.44
2019-03-28T12:18:08.761Z,68.72
2019-03-28T12:20:40.110Z,68.42
2019-03-28T12:23:11.762Z,67.45
2019-03-28T12:25:47.251Z,66.51
2019-03-28T12:28:17.025Z,67.96
2019-03-28T12:30:48.587Z,69.18
2019-03-28T12:33:20.130Z,67.40
2019-03-28T12:35:52.526Z,67.61
2019-03-28T12:38:23.962Z,68.19
2019-03-28T12:40:55.522Z,68.60
2019-03-28T12:43:27.072Z,67.42
2019-03-28T12:45:58.527Z,67.22
2019-03-28T12:48:29.980Z,65.40
2019-03-28T12:51:01.390Z,66.48
2019-03-28T12:53:33.094Z,64.99
2019-03-28T12:56:04.545Z,66.12
2019-03-28T12:58:36.307Z,64.99
2019-03-28T13:01:07.670Z,65.86
2019-03-28T13:03:45.489Z,63.82
2019-03-28T13:06:12.709Z,63.32
2019-03-28T13:08:44.274Z,64.05
2019-03-28T13:11:15.810Z,64.01
2019-03-28T13:13:47.684Z,61.12
2019-03-28T13:16:19.345Z,61.41
2019-03-28T13:18:50.898Z,61.02
2019-03-28T13:21:22.567Z,63.46
2019-03-28T13:23:54.013Z,67.09
2019-03-28T13:26:25.877Z,69.27
2019-03-28T13:28:57.505Z,70.67
2019-03-28T13:31:29.186Z,69.65
2019-03-28T13:34:01.370Z,69.93
2019-03-28T13:36:33.936Z,70.19
2019-03-28T13:39:06.810Z,69.07
2019-03-28T13:41:38.278Z,70.04
2019-03-28T13:44:12.109Z,69.61
2019-03-28T13:46:42.574Z,70.89
2019-03-28T13:49:14.166Z,71.48
2019-03-28T13:51:45.623Z,69.59
2019-03-28T13:54:17.287Z,68.67
2019-03-28T13:56:48.937Z,68.29
2019-03-28T13:59:20.504Z,68.24
2019-03-28T14:01:52.051Z,63.80
2019-03-28T14:04:23.606Z,63.88
2019-03-28T14:06:55.272Z,64.02
2019-03-28T14:09:26.723Z,63.30
2019-03-28T14:11:58.374Z,63.00
2019-03-28T14:14:29.829Z,62.59
2019-03-28T14:17:01.490Z,62.99
2019-03-28T14:19:32.862Z,64.28
2019-03-28T14:22:04.597Z,63.29
2019-03-28T14:24:35.949Z,64.60
2019-03-28T14:27:07.812Z,65.68
2019-03-28T14:29:39.674Z,64.43
2019-03-28T14:32:11.227Z,64.86
2019-03-28T14:34:44.014Z,63.92
2019-03-28T14:37:17.121Z,64.50
2019-03-28T14:39:49.353Z,62.69
2019-03-28T14:42:20.824Z,61.77
2019-03-28T14:44:52.385Z,63.22
2019-03-28T14:47:23.835Z,62.98
2019-03-28T14:49:55.391Z,63.77
2019-03-28T14:52:26.840Z,64.40
2019-03-28T14:55:01.376Z,65.12
2019-03-28T14:57:32.820Z,64.34
2019-03-28T15:00:13.581Z,64.96
2019-03-28T15:02:44.988Z,65.26
2019-03-28T15:05:16.482Z,65.73
2019-03-28T15:07:48.254Z,65.74
2019-03-28T15:10:19.659Z,64.90
2019-03-28T15:12:51.365Z,65.35
2019-03-28T15:15:23.019Z,64.47
2019-03-28T15:17:54.589Z,63.96
2019-03-28T15:20:27.582Z,63.49
2019-03-28T15:22:59.016Z,64.09
2019-03-28T15:25:30.558Z,66.24
2019-03-28T15:28:02.237Z,67.35
2019-03-28T15:30:33.886Z,67.35
2019-03-28T15:33:05.254Z,66.84
2019-03-28T15:35:36.895Z,66.99
2019-03-28T15:38:08.554Z,67.71
2019-03-28T15:40:40.005Z,67.85
2019-03-28T15:43:11.382Z,68.37
2019-03-28T15:45:43.023Z,68.81
2019-03-28T15:48:14.678Z,68.76
2019-03-28T15:50:46.036Z,68.93
2019-03-28T15:53:17.614Z,69.22
2019-03-28T15:56:16.256Z,69.28
2019-03-28T15:58:47.603Z,69.28
2019-03-28T16:01:19.051Z,70.19
2019-03-28T16:03:53.329Z,71.09
2019-03-28T16:06:23.912Z,74.38
2019-03-28T16:08:55.464Z,73.29
2019-03-28T16:11:27.136Z,75.24
2019-03-28T16:13:58.886Z,75.52
2019-03-28T16:16:30.528Z,75.53
2019-03-28T16:19:02.306Z,75.88
2019-03-28T16:21:33.767Z,76.90
2019-03-28T16:24:05.522Z,77.23
2019-03-28T16:26:36.995Z,77.90
2019-03-28T16:29:09.041Z,77.39
2019-03-28T16:31:40.895Z,76.17
2019-03-28T16:34:12.454Z,75.68
2019-03-28T16:36:44.316Z,74.96
2019-03-28T16:39:16.487Z,75.56
2019-03-28T16:41:48.141Z,74.80
2019-03-28T16:44:19.909Z,74.61
2019-03-28T16:46:51.560Z,74.80
2019-03-28T16:49:23.141Z,74.64
2019-03-28T16:51:54.887Z,74.89
2019-03-28T16:54:27.914Z,75.07
2019-03-28T16:56:59.522Z,74.88
2019-03-28T16:59:31.001Z,75.28
2019-03-28T17:02:02.753Z,75.94
2019-03-28T17:04:34.193Z,76.04
2019-03-28T17:07:06.875Z,76.39
2019-03-28T17:09:39.156Z,76.74
2019-03-28T17:12:11.007Z,77.63
2019-03-28T17:14:42.868Z,77.68
2019-03-28T17:17:14.729Z,78.47
2019-03-28T17:19:46.230Z,79.07
2019-03-28T17:22:18.156Z,79.19
2019-03-28T17:24:49.823Z,79.61
2019-03-28T17:27:21.262Z,79.93
2019-03-28T17:29:53.122Z,80.60
2019-03-28T17:32:24.590Z,80.59
2019-03-28T17:34:56.135Z,81.14
2019-03-28T17:37:27.889Z,81.23
2019-03-28T17:39:59.568Z,82.08
2019-03-28T17:42:31.415Z,82.34
2019-03-28T17:45:02.888Z,81.70
2019-03-28T17:47:34.624Z,81.46
2019-03-28T17:50:07.983Z,81.50
2019-03-28T17:52:39.373Z,81.69
2019-03-28T17:55:11.047Z,81.54
2019-03-28T17:57:42.689Z,82.24
2019-03-28T18:00:14.551Z,82.68
2019-03-28T18:02:46.110Z,82.21
2019-03-28T18:05:17.766Z,82.01
2019-03-28T18:07:49.514Z,81.81
2019-03-28T18:10:21.387Z,82.27
2019-03-28T18:12:53.145Z,82.90
2019-03-28T18:15:24.601Z,82.99
2019-03-28T18:17:56.467Z,82.81
2019-03-28T18:20:28.124Z,83.28
2019-03-28T18:22:59.678Z,83.53
2019-03-28T18:25:31.334Z,83.33
2019-03-28T18:28:03.098Z,83.34
2019-03-28T18:30:37.345Z,84.33
2019-03-28T18:33:08.560Z,83.66
2019-03-28T18:35:40.324Z,83.30
2019-03-28T18:38:11.881Z,83.42
2019-03-28T18:40:43.639Z,83.78
2019-03-28T18:43:15.294Z,84.41
2019-03-28T18:45:46.953Z,85.01
2019-03-28T18:48:29.115Z,84.57
2019-03-28T18:50:53.135Z,84.62
2019-03-28T18:53:24.993Z,84.88
2019-03-28T18:55:56.486Z,84.54
2019-03-28T18:58:28.418Z,84.43
2019-03-28T19:00:59.798Z,84.37
2019-03-28T19:03:31.523Z,84.72
2019-03-28T19:06:03.388Z,84.75
2019-03-28T19:08:34.943Z,85.77
2019-03-28T19:11:06.701Z,85.95
2019-03-28T19:13:38.156Z,86.10
2019-03-28T19:16:09.812Z,85.95
2019-03-28T19:18:41.593Z,86.34
2019-03-28T19:21:13.342Z,86.30
2019-03-28T19:23:44.795Z,87.41
2019-03-28T19:26:16.449Z,87.65
2019-03-28T19:28:48.103Z,87.27
2019-03-28T19:31:19.964Z,87.64
2019-03-28T19:33:51.420Z,87.54
2019-03-28T19:36:23.278Z,87.38
2019-03-28T19:38:54.731Z,87.21
2019-03-28T19:41:26.287Z,87.21
2019-03-28T19:43:57.843Z,87.33
2019-03-28T19:46:29.198Z,87.37
2019-03-28T19:49:00.766Z,87.66
2019-03-28T19:51:32.147Z,87.55
2019-03-28T19:54:03.515Z,87.63
2019-03-28T19:56:35.420Z,87.48
2019-03-28T19:59:06.898Z,87.61
2019-03-28T20:01:38.548Z,87.46
2019-03-28T20:04:10.394Z,87.27
2019-03-28T20:06:42.046Z,87.25
2019-03-28T20:09:16.470Z,87.24
2019-03-28T20:11:46.696Z,87.16
2019-03-28T20:14:18.254Z,86.87
2019-03-28T20:16:50.331Z,86.34
2019-03-28T20:19:22.185Z,86.23
2019-03-28T20:21:53.737Z,85.96
2019-03-28T20:24:25.495Z,85.85
2019-03-28T20:26:56.948Z,85.75
2019-03-28T20:29:28.514Z,85.66
2019-03-28T20:32:00.177Z,85.92
2019-03-28T20:34:32.025Z,86.06
2019-03-28T20:37:03.889Z,86.11
2019-03-28T20:39:35.273Z,86.23
2019-03-28T20:42:06.904Z,86.20
2019-03-28T20:44:38.551Z,87.08
2019-03-28T20:47:10.318Z,87.15
2019-03-28T20:49:46.735Z,87.68
2019-03-28T20:52:17.450Z,87.54
2019-03-28T20:54:49.184Z,87.88
2019-03-28T20:57:20.837Z,88.04
2019-03-28T20:59:52.695Z,88.39
2019-03-28T21:02:24.357Z,88.96
2019-03-28T21:04:56.010Z,89.20
2019-03-28T21:07:27.879Z,88.93
2019-03-28T21:09:59.427Z,88.92
2019-03-28T21:12:31.190Z,88.93
2019-03-28T21:15:02.852Z,89.20
2019-03-28T21:17:35.940Z,89.32
2019-03-28T21:20:07.801Z,89.21
2019-03-28T21:22:39.261Z,89.42
2019-03-28T21:25:10.822Z,89.51
2019-03-28T21:27:42.472Z,90.30
2019-03-28T21:30:14.233Z,90.41
2019-03-28T21:32:55.139Z,90.20
2019-03-28T21:35:19.179Z,90.06
2019-03-28T21:37:51.090Z,89.84
2019-03-28T21:40:22.624Z,90.00
2019-03-28T21:42:54.273Z,90.42
2019-03-28T21:45:25.922Z,90.57
2019-03-28T21:47:57.579Z,90.73
2019-03-28T21:50:29.237Z,90.60
2019-03-28T21:53:01.196Z,90.31
2019-03-28T21:55:33.061Z,90.30
2019-03-28T21:58:05.033Z,90.16
2019-03-28T22:00:36.682Z,90.20
2019-03-28T22:03:08.540Z,90.15
2019-03-28T22:05:40.102Z,90.31
2019-03-28T22:08:11.861Z,90.13
2019-03-28T22:10:43.623Z,89.96
2019-03-28T22:13:15.379Z,89.81
2019-03-28T22:15:47.139Z,89.50
2019-03-28T22:18:18.998Z,89.66
2019-03-28T22:20:50.479Z,89.56
2019-03-28T22:23:22.326Z,89.50
2019-03-28T22:25:53.875Z,89.62
2019-03-28T22:28:25.772Z,89.49
2019-03-28T22:30:57.392Z,89.38
2019-03-28T22:33:28.949Z,89.57
2019-03-28T22:36:00.819Z,89.59
2019-03-28T22:38:32.366Z,89.58
2019-03-28T22:41:04.126Z,89.85
2019-03-28T22:43:38.645Z,89.86
2019-03-28T22:46:09.753Z,89.99
2019-03-28T22:48:44.305Z,90.11
2019-03-28T22:51:15.708Z,90.13
2019-03-28T22:53:48.207Z,90.25
2019-03-28T22:56:20.006Z,90.09
2019-03-28T22:58:51.664Z,90.34
2019-03-28T23:01:23.532Z,90.34
2019-03-28T23:03:56.717Z,90.45
2019-03-28T23:06:28.479Z,90.45
2019-03-28T23:09:00.141Z,90.30
2019-03-28T23:11:31.704Z,90.37
2019-03-28T23:14:03.452Z,90.31
2019-03-28T23:16:35.011Z,89.89
2019-03-28T23:19:06.567Z,89.81
2019-03-28T23:21:38.139Z,89.80
2019-03-28T23:24:09.983Z,89.74
2019-03-28T23:26:41.642Z,89.54
2019-03-28T23:29:14.234Z,89.40
2019-03-28T23:31:46.717Z,89.08
2019-03-28T23:34:18.305Z,88.35
2019-03-28T23:36:50.115Z,87.66
2019-03-28T23:39:21.871Z,86.49
2019-03-28T23:41:53.640Z,86.01
2019-03-28T23:44:25.400Z,85.60
2019-03-28T23:46:56.848Z,85.77
2019-03-28T23:49:28.426Z,85.96
2019-03-28T23:52:00.057Z,85.88
2019-03-28T23:54:31.722Z,85.99
2019-03-28T23:57:03.584Z,86.03
2019-03-28T23:59:35.034Z,86.01
